createdAt,value
2017-09-15T00:00:54.436Z,2.30
2017-09-15T00:01:54.388Z,2.30
2017-09-15T00:02:54.348Z,2.10
2017-09-15T00:03:54.322Z,2.30
2017-09-15T00:04:54.283Z,2.10
2017-09-15T00:05:54.263Z,2.50
2017-09-15T00:06:54.221Z,2.20
2017-09-15T00:07:54.175Z,2.40
2017-09-15T00:08:54.145Z,2.50
2017-09-15T00:09:54.103Z,2.00
2017-09-15T00:10:54.072Z,2.40
2017-09-15T00:11:54.031Z,2.50
2017-09-15T00:12:53.999Z,2.30
2017-09-15T00:13:53.959Z,2.50
2017-09-15T00:14:53.922Z,2.20
2017-09-15T00:15:53.888Z,2.50
2017-09-15T00:16:53.861Z,2.60
2017-09-15T00:17:53.817Z,2.70
2017-09-15T00:18:53.780Z,2.60
2017-09-15T00:19:53.743Z,2.50
2017-09-15T00:20:53.727Z,2.70
2017-09-15T00:21:53.688Z,2.90
2017-09-15T00:22:53.638Z,2.80
2017-09-15T00:23:53.608Z,3.00
2017-09-15T00:24:53.573Z,2.60
2017-09-15T00:25:53.531Z,2.80
2017-09-15T00:26:53.494Z,2.90
2017-09-15T00:27:53.459Z,2.60
2017-09-15T00:28:53.431Z,2.90
2017-09-15T00:29:53.395Z,2.90
2017-09-15T00:30:53.354Z,2.90
2017-09-15T00:31:53.319Z,3.10
2017-09-15T00:32:53.290Z,3.30
2017-09-15T00:33:53.245Z,3.10
2017-09-15T00:34:53.208Z,2.80
2017-09-15T00:35:53.179Z,2.90
2017-09-15T00:36:53.136Z,3.00
2017-09-15T00:37:53.103Z,3.00
2017-09-15T00:38:53.076Z,3.20
2017-09-15T00:39:53.060Z,3.10
2017-09-15T00:40:52.994Z,3.40
2017-09-15T00:41:52.962Z,3.60
2017-09-15T00:42:52.930Z,3.10
2017-09-15T00:43:52.907Z,3.40
2017-09-15T00:44:52.862Z,3.30
2017-09-15T00:45:52.815Z,3.60
2017-09-15T00:46:52.802Z,3.60
2017-09-15T00:47:52.761Z,3.20
2017-09-15T00:48:52.715Z,3.40
2017-09-15T00:49:52.690Z,3.30
2017-09-15T00:50:52.648Z,3.60
2017-09-15T00:51:52.632Z,3.70
2017-09-15T00:52:52.565Z,3.90
2017-09-15T00:53:52.570Z,3.90
2017-09-15T00:54:52.504Z,4.10
2017-09-15T00:55:52.474Z,4.20
2017-09-15T00:56:52.446Z,4.00
2017-09-15T00:57:52.406Z,4.10
2017-09-15T00:58:52.373Z,4.60
2017-09-15T00:59:52.346Z,4.20
2017-09-15T01:00:52.283Z,4.60
2017-09-15T01:01:52.250Z,4.10
2017-09-15T01:02:52.214Z,4.80
2017-09-15T01:03:52.178Z,4.50
2017-09-15T01:04:52.158Z,4.70
2017-09-15T01:05:52.128Z,5.00
2017-09-15T01:06:52.068Z,4.40
2017-09-15T01:07:52.040Z,4.80
2017-09-15T01:08:52.005Z,4.80
2017-09-15T01:09:51.958Z,4.70
2017-09-15T01:10:51.948Z,4.80
2017-09-15T01:11:51.893Z,5.20
2017-09-15T01:12:51.857Z,4.80
2017-09-15T01:13:51.823Z,4.80
2017-09-15T01:14:51.791Z,4.90
2017-09-15T01:15:51.765Z,4.70
2017-09-15T01:16:51.740Z,5.50
2017-09-15T01:17:51.696Z,5.50
2017-09-15T01:18:51.652Z,5.20
2017-09-15T01:19:51.639Z,5.50
2017-09-15T01:20:51.569Z,5.30
2017-09-15T01:21:51.531Z,5.60
2017-09-15T01:22:51.504Z,5.50
2017-09-15T01:23:51.487Z,5.60
2017-09-15T01:24:51.437Z,6.30
2017-09-15T01:25:52.242Z,6.00
2017-09-15T01:26:51.365Z,6.10
2017-09-15T01:27:51.327Z,6.90
2017-09-15T01:28:51.293Z,6.70
2017-09-15T01:29:51.250Z,6.80
2017-09-15T01:30:51.212Z,6.20
2017-09-15T01:31:51.176Z,6.90
2017-09-15T01:32:51.141Z,6.70
2017-09-15T01:33:51.107Z,6.90
2017-09-15T01:34:51.073Z,7.30
2017-09-15T01:35:51.043Z,7.50
2017-09-15T01:36:51.002Z,6.90
2017-09-15T01:37:50.968Z,7.20
2017-09-15T01:38:50.933Z,7.30
2017-09-15T01:39:50.894Z,7.70
2017-09-15T01:40:50.857Z,7.60
2017-09-15T01:41:50.822Z,7.40
2017-09-15T01:42:50.784Z,7.40
2017-09-15T01:43:50.749Z,7.50
2017-09-15T01:44:50.714Z,8.10
2017-09-15T01:45:50.677Z,7.30
2017-09-15T01:46:50.641Z,8.10
2017-09-15T01:47:50.605Z,7.30
2017-09-15T01:48:50.569Z,7.60
2017-09-15T01:49:50.534Z,7.50
2017-09-15T01:50:50.497Z,7.90
2017-09-15T01:51:50.461Z,8.00
2017-09-15T01:52:50.426Z,7.60
2017-09-15T01:53:50.395Z,7.90
2017-09-15T01:54:50.353Z,8.00
2017-09-15T01:55:50.320Z,7.70
2017-09-15T01:56:50.286Z,7.50
2017-09-15T01:57:50.248Z,7.40
2017-09-15T01:58:50.211Z,7.50
2017-09-15T01:59:50.176Z,8.10
2017-09-15T02:00:50.149Z,7.90
2017-09-15T02:01:50.107Z,7.60
2017-09-15T02:02:50.069Z,7.50
2017-09-15T02:03:50.034Z,8.20
2017-09-15T02:04:50.002Z,8.30
2017-09-15T02:05:49.964Z,8.10
2017-09-15T02:06:49.926Z,8.20
2017-09-15T02:07:49.894Z,8.60
2017-09-15T02:08:49.857Z,8.80
2017-09-15T02:09:49.819Z,8.80
2017-09-15T02:10:49.786Z,8.20
2017-09-15T02:11:49.750Z,9.70
2017-09-15T02:12:49.712Z,8.30
2017-09-15T02:13:49.680Z,8.60
2017-09-15T02:14:49.639Z,8.90
2017-09-15T02:15:49.606Z,8.90
2017-09-15T02:16:49.570Z,8.90
2017-09-15T02:17:49.542Z,8.60
2017-09-15T02:18:49.502Z,8.90
2017-09-15T02:19:49.463Z,8.80
2017-09-15T02:20:49.428Z,9.20
2017-09-15T02:21:49.396Z,9.50
2017-09-15T02:22:49.358Z,9.00
2017-09-15T02:23:49.323Z,8.60
2017-09-15T02:24:49.285Z,8.90
2017-09-15T02:25:49.249Z,8.60
2017-09-15T02:26:49.217Z,9.00
2017-09-15T02:27:49.181Z,9.00
2017-09-15T02:28:49.143Z,8.60
2017-09-15T02:29:49.112Z,8.40
2017-09-15T02:30:49.071Z,9.40
2017-09-15T02:31:49.044Z,8.60
2017-09-15T02:32:49.000Z,8.10
2017-09-15T02:33:48.966Z,8.20
2017-09-15T02:34:48.934Z,8.60
2017-09-15T02:35:48.894Z,8.30
2017-09-15T02:36:48.858Z,7.80
2017-09-15T02:37:48.820Z,7.80
2017-09-15T02:38:48.780Z,7.50
2017-09-15T02:39:48.747Z,7.50
2017-09-15T02:40:48.722Z,7.80
2017-09-15T02:41:48.677Z,7.40
2017-09-15T02:42:48.644Z,7.50
2017-09-15T02:43:48.606Z,6.90
2017-09-15T02:44:48.571Z,7.30
2017-09-15T02:45:48.539Z,7.10
2017-09-15T02:46:48.498Z,7.20
2017-09-15T02:47:48.462Z,6.90
2017-09-15T02:48:48.434Z,7.40
2017-09-15T02:49:48.395Z,6.70
2017-09-15T02:50:48.365Z,7.40
2017-09-15T02:51:48.326Z,7.00
2017-09-15T02:52:48.292Z,6.80
2017-09-15T02:53:48.250Z,6.90
2017-09-15T02:54:48.218Z,6.70
2017-09-15T02:55:48.180Z,7.00
2017-09-15T02:56:48.147Z,6.50
2017-09-15T02:57:48.110Z,5.90
2017-09-15T02:58:48.074Z,6.20
2017-09-15T02:59:48.038Z,6.00
2017-09-15T03:00:48.020Z,6.00
2017-09-15T03:01:47.964Z,6.30
2017-09-15T03:02:47.930Z,5.70
2017-09-15T03:03:47.895Z,5.20
2017-09-15T03:04:47.858Z,5.50
2017-09-15T03:05:47.829Z,5.60
2017-09-15T03:06:47.792Z,5.30
2017-09-15T03:07:47.764Z,5.40
2017-09-15T03:08:47.720Z,5.30
2017-09-15T03:09:47.680Z,5.00
2017-09-15T03:10:47.649Z,4.60
2017-09-15T03:11:47.618Z,5.50
2017-09-15T03:12:47.571Z,5.10
2017-09-15T03:13:47.539Z,4.80
2017-09-15T03:14:47.507Z,5.50
2017-09-15T03:15:47.473Z,5.30
2017-09-15T03:16:47.431Z,5.30
2017-09-15T03:17:47.393Z,5.10
2017-09-15T03:18:47.360Z,5.30
2017-09-15T03:19:47.336Z,5.30
2017-09-15T03:20:47.291Z,5.00
2017-09-15T03:21:47.255Z,5.30
2017-09-15T03:22:47.211Z,5.60
2017-09-15T03:23:47.184Z,5.20
2017-09-15T03:24:47.159Z,4.90
2017-09-15T03:25:47.137Z,5.00
2017-09-15T03:26:47.077Z,5.20
2017-09-15T03:27:47.043Z,4.70
2017-09-15T03:28:47.019Z,5.20
2017-09-15T03:29:46.997Z,4.60
2017-09-15T03:30:46.946Z,4.80
2017-09-15T03:31:46.901Z,4.70
2017-09-15T03:32:46.943Z,5.30
2017-09-15T03:33:46.824Z,5.20
2017-09-15T03:34:46.781Z,5.10
2017-09-15T03:35:46.749Z,5.10
2017-09-15T03:36:46.733Z,5.00
2017-09-15T03:37:46.684Z,4.60
2017-09-15T03:38:46.686Z,4.70
2017-09-15T03:39:46.643Z,5.00
2017-09-15T03:40:46.585Z,4.60
2017-09-15T03:41:46.557Z,4.80
2017-09-15T03:42:46.516Z,4.10
2017-09-15T03:43:46.467Z,4.40
2017-09-15T03:44:46.438Z,4.80
2017-09-15T03:45:46.397Z,4.30
2017-09-15T03:46:46.403Z,4.50
2017-09-15T03:47:46.339Z,3.90
2017-09-15T03:48:46.294Z,4.60
2017-09-15T03:49:46.277Z,4.20
2017-09-15T03:50:46.222Z,4.20
2017-09-15T03:51:46.179Z,4.20
2017-09-15T03:52:46.147Z,4.20
2017-09-15T03:53:46.119Z,4.10
2017-09-15T03:54:46.079Z,4.30
2017-09-15T03:55:46.047Z,3.80
2017-09-15T03:56:46.002Z,3.90
2017-09-15T03:57:45.966Z,4.30
2017-09-15T03:58:45.935Z,4.00
2017-09-15T03:59:45.898Z,3.90
2017-09-15T04:00:45.865Z,3.80
2017-09-15T04:01:45.828Z,3.60
2017-09-15T04:02:45.790Z,3.90
2017-09-15T04:03:45.759Z,3.80
2017-09-15T04:04:45.718Z,3.70
2017-09-15T04:05:45.687Z,3.80
2017-09-15T04:06:45.646Z,3.50
2017-09-15T04:07:45.612Z,4.20
2017-09-15T04:08:45.581Z,3.60
2017-09-15T04:09:45.539Z,3.40
2017-09-15T04:10:45.501Z,3.50
2017-09-15T04:11:45.469Z,3.30
2017-09-15T04:12:45.439Z,3.50
2017-09-15T04:13:45.402Z,3.30
2017-09-15T04:14:45.359Z,3.60
2017-09-15T04:15:45.336Z,3.60
2017-09-15T04:16:45.291Z,4.00
2017-09-15T04:17:45.250Z,3.50
2017-09-15T04:18:45.224Z,3.20
2017-09-15T04:19:45.183Z,3.30
2017-09-15T04:20:45.155Z,3.10
2017-09-15T04:21:45.122Z,3.30
2017-09-15T04:22:45.077Z,3.30
2017-09-15T04:23:45.055Z,3.20
2017-09-15T04:24:45.007Z,3.20
2017-09-15T04:25:44.969Z,3.20
2017-09-15T04:26:44.932Z,3.20
2017-09-15T04:27:44.901Z,3.50
2017-09-15T04:28:44.873Z,3.80
2017-09-15T04:29:44.831Z,3.40
2017-09-15T04:30:44.791Z,3.30
2017-09-15T04:31:44.758Z,2.90
2017-09-15T04:32:44.726Z,3.20
2017-09-15T04:33:44.691Z,3.50
2017-09-15T04:34:44.653Z,3.30
2017-09-15T04:35:44.614Z,3.00
2017-09-15T04:36:44.581Z,3.80
2017-09-15T04:37:44.546Z,3.40
2017-09-15T04:38:44.509Z,3.50
2017-09-15T04:39:44.471Z,3.30
2017-09-15T04:40:44.446Z,3.10
2017-09-15T04:41:44.403Z,3.10
2017-09-15T04:42:44.365Z,3.60
2017-09-15T04:43:44.353Z,3.60
2017-09-15T04:44:44.295Z,2.90
2017-09-15T04:45:44.264Z,3.10
2017-09-15T04:46:44.226Z,3.40
2017-09-15T04:47:44.188Z,3.70
2017-09-15T04:48:44.151Z,3.30
2017-09-15T04:49:44.121Z,3.50
2017-09-15T04:50:44.093Z,3.70
2017-09-15T04:51:44.046Z,4.00
2017-09-15T04:52:44.010Z,3.80
2017-09-15T04:53:43.976Z,3.40
2017-09-15T04:54:43.956Z,3.40
2017-09-15T04:55:43.903Z,3.00
2017-09-15T04:56:43.884Z,3.10
2017-09-15T04:57:43.853Z,3.30
2017-09-15T04:58:43.824Z,3.50
2017-09-15T04:59:43.771Z,3.70
2017-09-15T05:00:43.758Z,3.60
2017-09-15T05:01:43.715Z,3.40
2017-09-15T05:02:43.670Z,4.50
2017-09-15T05:03:43.673Z,3.40
2017-09-15T05:04:43.586Z,4.00
2017-09-15T05:05:43.583Z,3.10
2017-09-15T05:06:43.551Z,3.40
2017-09-15T05:07:43.487Z,3.40
2017-09-15T05:08:43.460Z,3.50
2017-09-15T05:09:43.450Z,3.80
2017-09-15T05:10:43.380Z,3.80
2017-09-15T05:11:43.337Z,4.00
2017-09-15T05:12:43.319Z,3.70
2017-09-15T05:13:43.380Z,3.90
2017-09-15T05:14:43.236Z,4.30
2017-09-15T05:15:43.208Z,3.80
2017-09-15T05:16:43.189Z,3.90
2017-09-15T05:17:43.198Z,3.70
2017-09-15T05:18:43.139Z,3.90
2017-09-15T05:19:43.115Z,3.50
2017-09-15T05:20:43.015Z,4.20
2017-09-15T05:21:42.982Z,3.90
2017-09-15T05:22:42.947Z,4.40
2017-09-15T05:23:42.913Z,4.00
2017-09-15T05:24:42.895Z,3.90
2017-09-15T05:25:42.836Z,3.90
2017-09-15T05:26:42.824Z,4.40
2017-09-15T05:27:42.802Z,4.70
2017-09-15T05:28:42.774Z,4.20
2017-09-15T05:29:42.716Z,4.40
2017-09-15T05:30:42.668Z,4.60
2017-09-15T05:31:42.637Z,4.00
2017-09-15T05:32:42.697Z,4.20
2017-09-15T05:33:42.568Z,3.70
2017-09-15T05:34:42.697Z,4.00
2017-09-15T05:35:42.504Z,4.60
2017-09-15T05:36:42.462Z,4.70
2017-09-15T05:37:42.428Z,4.20
2017-09-15T05:38:42.385Z,3.90
2017-09-15T05:39:42.353Z,4.60
2017-09-15T05:40:42.320Z,4.00
2017-09-15T05:41:42.279Z,3.80
2017-09-15T05:42:42.286Z,3.90
2017-09-15T05:43:42.234Z,3.90
2017-09-15T05:44:42.919Z,4.40
2017-09-15T05:45:42.138Z,3.90
2017-09-15T05:46:42.098Z,4.00
2017-09-15T05:47:42.063Z,4.20
2017-09-15T05:48:42.037Z,4.10
2017-09-15T05:49:41.992Z,4.10
2017-09-15T05:50:41.962Z,4.30
2017-09-15T05:51:41.926Z,4.30
2017-09-15T05:52:41.888Z,4.00
2017-09-15T05:53:41.853Z,3.70
2017-09-15T05:54:41.816Z,4.30
2017-09-15T05:55:41.784Z,4.40
2017-09-15T05:56:41.757Z,3.90
2017-09-15T05:57:41.710Z,4.00
2017-09-15T05:58:41.680Z,3.60
2017-09-15T05:59:41.649Z,3.70
2017-09-15T06:00:41.611Z,4.40
2017-09-15T06:01:41.577Z,4.40
2017-09-15T06:02:41.539Z,4.70
2017-09-15T06:03:41.515Z,4.90
2017-09-15T06:04:41.471Z,4.40
2017-09-15T06:05:41.436Z,4.00
2017-09-15T06:06:41.406Z,3.90
2017-09-15T06:07:41.369Z,3.50
2017-09-15T06:08:41.331Z,3.40
2017-09-15T06:09:41.333Z,3.70
2017-09-15T06:10:41.264Z,3.90
2017-09-15T06:11:41.230Z,3.60
2017-09-15T06:12:41.198Z,3.70
2017-09-15T06:13:41.158Z,3.30
2017-09-15T06:14:41.128Z,3.70
2017-09-15T06:15:41.433Z,3.70
2017-09-15T06:16:41.059Z,3.80
2017-09-15T06:17:41.027Z,3.00
2017-09-15T06:18:40.989Z,3.60
2017-09-15T06:19:40.953Z,4.10
2017-09-15T06:20:40.916Z,3.40
2017-09-15T06:21:40.883Z,3.30
2017-09-15T06:22:40.848Z,3.60
2017-09-15T06:23:40.816Z,3.50
2017-09-15T06:24:40.781Z,3.80
2017-09-15T06:25:40.747Z,3.40
2017-09-15T06:26:40.710Z,3.40
2017-09-15T06:27:40.677Z,4.50
2017-09-15T06:28:40.644Z,5.20
2017-09-15T06:29:40.607Z,4.60
2017-09-15T06:30:40.593Z,3.60
2017-09-15T06:31:40.557Z,3.30
2017-09-15T06:32:40.510Z,3.20
2017-09-15T06:33:40.489Z,3.50
2017-09-15T06:34:40.436Z,3.50
2017-09-15T06:35:40.407Z,3.20
2017-09-15T06:36:40.376Z,3.20
2017-09-15T06:37:40.336Z,2.80
2017-09-15T06:38:40.305Z,3.60
2017-09-15T06:39:40.269Z,3.10
2017-09-15T06:40:40.242Z,3.00
2017-09-15T06:41:40.211Z,3.40
2017-09-15T06:42:40.168Z,3.60
2017-09-15T06:43:40.139Z,3.70
2017-09-15T06:44:40.105Z,3.50
2017-09-15T06:45:40.094Z,3.40
2017-09-15T06:46:40.035Z,3.60
2017-09-15T06:47:39.999Z,3.80
2017-09-15T06:48:39.966Z,3.20
2017-09-15T06:49:39.931Z,3.50
2017-09-15T06:50:39.902Z,3.70
2017-09-15T06:51:39.867Z,3.80
2017-09-15T06:52:39.835Z,3.20
2017-09-15T06:53:39.800Z,3.60
2017-09-15T06:54:39.766Z,3.60
2017-09-15T06:55:39.734Z,4.20
2017-09-15T06:56:39.710Z,3.70
2017-09-15T06:57:39.665Z,3.80
2017-09-15T06:58:39.636Z,3.50
2017-09-15T06:59:39.608Z,4.80
2017-09-15T07:00:39.571Z,4.70
2017-09-15T07:01:39.536Z,4.50
2017-09-15T07:02:39.502Z,3.90
2017-09-15T07:03:39.477Z,3.70
2017-09-15T07:04:39.437Z,4.30
2017-09-15T07:05:39.407Z,4.00
2017-09-15T07:06:39.378Z,4.00
2017-09-15T07:07:39.336Z,3.20
2017-09-15T07:08:39.306Z,4.30
2017-09-15T07:09:39.275Z,4.60
2017-09-15T07:10:39.238Z,4.30
2017-09-15T07:11:39.210Z,3.80
2017-09-15T07:12:39.176Z,3.90
2017-09-15T07:13:39.145Z,3.40
2017-09-15T07:14:39.114Z,3.30
2017-09-15T07:15:39.082Z,3.90
2017-09-15T07:16:39.050Z,3.80
2017-09-15T07:17:39.022Z,3.60
2017-09-15T07:18:38.995Z,3.70
2017-09-15T07:19:38.944Z,3.80
2017-09-15T07:20:38.909Z,3.90
2017-09-15T07:21:38.883Z,3.90
2017-09-15T07:22:38.849Z,3.70
2017-09-15T07:23:38.823Z,3.70
2017-09-15T07:24:38.777Z,3.10
2017-09-15T07:25:38.760Z,3.50
2017-09-15T07:26:38.713Z,4.30
2017-09-15T07:27:38.682Z,3.80
2017-09-15T07:28:38.655Z,3.80
2017-09-15T07:29:38.617Z,3.90
2017-09-15T07:30:38.583Z,3.90
2017-09-15T07:31:38.548Z,3.40
2017-09-15T07:32:38.526Z,3.70
2017-09-15T07:33:38.512Z,3.70
2017-09-15T07:34:38.465Z,3.70
2017-09-15T07:35:38.428Z,3.60
2017-09-15T07:36:38.385Z,3.80
2017-09-15T07:37:38.378Z,3.80
2017-09-15T07:38:38.343Z,3.50
2017-09-15T07:39:38.291Z,3.30
2017-09-15T07:40:38.256Z,3.10
2017-09-15T07:41:38.255Z,3.90
2017-09-15T07:42:38.203Z,3.30
2017-09-15T07:43:38.166Z,3.00
2017-09-15T07:44:38.134Z,3.00
2017-09-15T07:45:38.105Z,3.20
2017-09-15T07:46:38.058Z,3.60
2017-09-15T07:47:38.031Z,3.10
2017-09-15T07:48:38.010Z,3.30
2017-09-15T07:49:37.980Z,3.00
2017-09-15T07:50:37.925Z,3.20
2017-09-15T07:51:37.898Z,3.60
2017-09-15T07:52:37.915Z,3.10
2017-09-15T07:53:37.843Z,3.00
2017-09-15T07:54:37.810Z,3.20
2017-09-15T07:55:37.769Z,3.00
2017-09-15T07:56:37.730Z,3.30
2017-09-15T07:57:37.700Z,2.60
2017-09-15T07:58:37.680Z,3.50
2017-09-15T07:59:37.644Z,3.70
2017-09-15T08:00:37.644Z,3.20
2017-09-15T08:01:37.584Z,2.70
2017-09-15T08:02:37.545Z,2.90
2017-09-15T08:03:37.520Z,3.00
2017-09-15T08:04:37.489Z,2.80
2017-09-15T08:05:37.452Z,3.10
2017-09-15T08:06:37.423Z,3.10
2017-09-15T08:07:37.406Z,3.70
2017-09-15T08:08:37.354Z,3.00
2017-09-15T08:09:37.312Z,3.10
2017-09-15T08:10:37.286Z,3.50
2017-09-15T08:11:37.267Z,4.10
2017-09-15T08:12:37.221Z,2.90
2017-09-15T08:13:37.186Z,2.70
2017-09-15T08:14:37.159Z,3.20
2017-09-15T08:15:37.120Z,3.40
2017-09-15T08:16:37.095Z,2.60
2017-09-15T08:17:37.054Z,2.90
2017-09-15T08:18:37.031Z,3.00
2017-09-15T08:19:36.982Z,2.70
2017-09-15T08:20:36.982Z,2.60
2017-09-15T08:21:36.922Z,2.70
2017-09-15T08:22:36.887Z,2.90
2017-09-15T08:23:36.857Z,2.90
2017-09-15T08:24:36.821Z,2.70
2017-09-15T08:25:36.804Z,2.90
2017-09-15T08:26:36.765Z,2.70
2017-09-15T08:27:36.725Z,2.70
2017-09-15T08:28:36.692Z,2.80
2017-09-15T08:29:36.663Z,2.50
2017-09-15T08:30:36.626Z,2.30
2017-09-15T08:31:36.596Z,2.30
2017-09-15T08:32:36.561Z,2.30
2017-09-15T08:33:36.529Z,2.90
2017-09-15T08:34:36.497Z,2.30
2017-09-15T08:35:36.474Z,2.40
2017-09-15T08:36:36.433Z,2.60
2017-09-15T08:37:36.402Z,2.70
2017-09-15T08:38:36.380Z,2.60
2017-09-15T08:39:36.341Z,2.40
2017-09-15T08:40:36.304Z,3.20
2017-09-15T08:41:36.272Z,3.30
2017-09-15T08:42:36.243Z,2.70
2017-09-15T08:43:36.212Z,3.30
2017-09-15T08:44:36.175Z,2.80
2017-09-15T08:45:36.139Z,2.90
2017-09-15T08:46:36.110Z,2.80
2017-09-15T08:47:36.086Z,2.90
2017-09-15T08:48:36.051Z,2.80
2017-09-15T08:49:36.010Z,2.40
2017-09-15T08:50:35.983Z,2.60
2017-09-15T08:51:35.948Z,2.70
2017-09-15T08:52:35.920Z,2.60
2017-09-15T08:53:35.891Z,2.30
2017-09-15T08:54:35.858Z,2.00
2017-09-15T08:55:35.826Z,2.20
2017-09-15T08:56:35.788Z,2.30
2017-09-15T08:57:35.756Z,2.20
2017-09-15T08:58:35.727Z,2.10
2017-09-15T08:59:35.688Z,3.10
2017-09-15T09:00:35.663Z,3.20
2017-09-15T09:01:35.627Z,3.30
2017-09-15T09:02:35.595Z,5.10
2017-09-15T09:03:35.574Z,3.40
2017-09-15T09:04:35.533Z,2.50
2017-09-15T09:05:35.499Z,2.90
2017-09-15T09:06:35.476Z,2.40
2017-09-15T09:07:35.443Z,2.40
2017-09-15T09:08:35.413Z,2.70
2017-09-15T09:09:35.373Z,2.30
2017-09-15T09:10:35.346Z,2.90
2017-09-15T09:11:35.309Z,2.80
2017-09-15T09:12:35.281Z,2.70
2017-09-15T09:13:35.267Z,2.80
2017-09-15T09:14:35.221Z,2.80
2017-09-15T09:15:35.194Z,2.40
2017-09-15T09:16:35.154Z,2.70
2017-09-15T09:17:35.135Z,2.40
2017-09-15T09:18:35.092Z,2.70
2017-09-15T09:19:35.068Z,2.40
2017-09-15T09:20:35.027Z,2.30
2017-09-15T09:21:35.013Z,2.60
2017-09-15T09:22:34.962Z,2.60
2017-09-15T09:23:34.934Z,3.00
2017-09-15T09:24:34.903Z,2.90
2017-09-15T09:25:34.877Z,2.30
2017-09-15T09:26:34.839Z,2.20
2017-09-15T09:27:34.813Z,2.70
2017-09-15T09:28:34.776Z,2.20
2017-09-15T09:29:34.746Z,2.60
2017-09-15T09:30:34.720Z,2.70
2017-09-15T09:31:34.687Z,2.30
2017-09-15T09:32:34.661Z,2.60
2017-09-15T09:33:34.626Z,2.60
2017-09-15T09:34:34.591Z,2.20
2017-09-15T09:35:34.559Z,2.50
2017-09-15T09:36:34.532Z,2.50
2017-09-15T09:37:34.503Z,2.10
2017-09-15T09:38:34.472Z,2.40
2017-09-15T09:39:34.436Z,2.30
2017-09-15T09:40:34.409Z,2.50
2017-09-15T09:41:34.375Z,2.10
2017-09-15T09:42:34.346Z,2.60
2017-09-15T09:43:34.313Z,3.00
2017-09-15T09:44:34.281Z,2.20
2017-09-15T09:45:34.250Z,2.30
2017-09-15T09:46:34.219Z,2.20
2017-09-15T09:47:34.197Z,2.40
2017-09-15T09:48:34.157Z,2.60
2017-09-15T09:49:34.129Z,3.50
2017-09-15T09:50:34.101Z,3.20
2017-09-15T09:51:34.066Z,2.70
2017-09-15T09:52:34.047Z,3.10
2017-09-15T09:53:34.001Z,1.90
2017-09-15T09:54:33.973Z,3.00
2017-09-15T09:55:33.938Z,2.60
2017-09-15T09:56:33.910Z,2.40
2017-09-15T09:57:33.874Z,2.40
2017-09-15T09:58:33.842Z,2.70
2017-09-15T09:59:33.829Z,2.80
2017-09-15T10:00:33.795Z,2.10
2017-09-15T10:01:33.746Z,2.70
2017-09-15T10:02:33.719Z,2.40
2017-09-15T10:03:33.685Z,2.70
2017-09-15T10:04:33.662Z,3.30
2017-09-15T10:05:33.624Z,2.60
2017-09-15T10:06:33.603Z,2.40
2017-09-15T10:07:33.560Z,3.20
2017-09-15T10:08:33.541Z,2.50
2017-09-15T10:09:33.497Z,2.60
2017-09-15T10:10:33.482Z,2.40
2017-09-15T10:11:33.435Z,2.60
2017-09-15T10:12:33.400Z,2.50
2017-09-15T10:13:33.380Z,2.60
2017-09-15T10:14:33.359Z,2.50
2017-09-15T10:15:33.321Z,2.30
2017-09-15T10:16:33.295Z,2.30
2017-09-15T10:17:33.245Z,2.60
2017-09-15T10:18:33.225Z,3.10
2017-09-15T10:19:33.182Z,2.40
2017-09-15T10:20:33.163Z,2.30
2017-09-15T10:21:33.131Z,2.10
2017-09-15T10:22:33.095Z,2.30
2017-09-15T10:23:33.072Z,2.30
2017-09-15T10:24:33.059Z,2.20
2017-09-15T10:25:33.014Z,2.00
2017-09-15T10:26:32.969Z,1.80
2017-09-15T10:27:32.936Z,2.10
2017-09-15T10:28:32.898Z,2.10
2017-09-15T10:29:32.910Z,2.00
2017-09-15T10:30:32.841Z,2.60
2017-09-15T10:31:32.816Z,2.60
2017-09-15T10:32:32.777Z,2.90
2017-09-15T10:33:32.744Z,2.70
2017-09-15T10:34:32.713Z,2.30
2017-09-15T10:35:32.681Z,2.70
2017-09-15T10:36:32.649Z,2.20
2017-09-15T10:37:32.638Z,1.90
2017-09-15T10:38:32.588Z,2.80
2017-09-15T10:39:32.563Z,2.60
2017-09-15T10:40:32.525Z,2.50
2017-09-15T10:41:32.509Z,2.70
2017-09-15T10:42:32.478Z,3.00
2017-09-15T10:43:32.461Z,2.10
2017-09-15T10:44:32.396Z,2.10
2017-09-15T10:45:32.377Z,1.90
2017-09-15T10:46:32.344Z,2.40
2017-09-15T10:47:32.321Z,2.20
2017-09-15T10:48:32.272Z,3.30
2017-09-15T10:49:32.253Z,2.70
2017-09-15T10:50:32.221Z,2.50
2017-09-15T10:51:32.196Z,2.70
2017-09-15T10:52:32.148Z,2.60
2017-09-15T10:53:32.150Z,2.60
2017-09-15T10:54:32.087Z,2.60
2017-09-15T10:55:32.055Z,5.10
2017-09-15T10:56:32.026Z,5.30
2017-09-15T10:57:31.995Z,2.60
2017-09-15T10:58:31.958Z,2.20
2017-09-15T10:59:31.931Z,1.90
2017-09-15T11:00:31.898Z,2.30
2017-09-15T11:01:31.876Z,2.10
2017-09-15T11:02:31.842Z,1.90
2017-09-15T11:03:31.803Z,2.10
2017-09-15T11:04:31.773Z,1.90
2017-09-15T11:05:31.742Z,2.00
2017-09-15T11:06:31.711Z,2.30
2017-09-15T11:07:31.683Z,2.00
2017-09-15T11:08:31.653Z,2.20
2017-09-15T11:09:31.618Z,2.00
2017-09-15T11:10:31.591Z,2.70
2017-09-15T11:11:31.557Z,2.40
2017-09-15T11:12:31.524Z,2.30
2017-09-15T11:13:31.493Z,1.90
2017-09-15T11:14:31.463Z,2.00
2017-09-15T11:15:31.429Z,1.90
2017-09-15T11:16:31.402Z,2.60
2017-09-15T11:17:31.377Z,2.10
2017-09-15T11:18:31.340Z,2.30
2017-09-15T11:19:31.309Z,2.40
2017-09-15T11:20:31.278Z,2.10
2017-09-15T11:21:31.246Z,1.80
2017-09-15T11:22:31.215Z,2.40
2017-09-15T11:23:31.184Z,2.10
2017-09-15T11:24:31.160Z,2.10
2017-09-15T11:25:31.122Z,1.90
2017-09-15T11:26:31.090Z,2.10
2017-09-15T11:27:31.060Z,2.30
2017-09-15T11:28:31.033Z,2.30
2017-09-15T11:29:31.001Z,2.10
2017-09-15T11:30:30.979Z,2.30
2017-09-15T11:31:30.947Z,2.00
2017-09-15T11:32:30.907Z,2.30
2017-09-15T11:33:30.878Z,2.00
2017-09-15T11:34:30.862Z,1.90
2017-09-15T11:35:30.817Z,2.20
2017-09-15T11:36:30.786Z,2.00
2017-09-15T11:37:30.756Z,2.60
2017-09-15T11:38:30.724Z,2.30
2017-09-15T11:39:30.700Z,2.20
2017-09-15T11:40:30.665Z,1.90
2017-09-15T11:41:30.633Z,2.00
2017-09-15T11:42:30.601Z,2.30
2017-09-15T11:43:30.572Z,2.20
2017-09-15T11:44:30.553Z,2.40
2017-09-15T11:45:30.522Z,2.50
2017-09-15T11:46:30.481Z,2.40
2017-09-15T11:47:30.457Z,2.40
2017-09-15T11:48:30.422Z,2.30
2017-09-15T11:49:30.394Z,2.40
2017-09-15T11:50:30.355Z,2.40
2017-09-15T11:51:30.330Z,2.70
2017-09-15T11:52:30.299Z,2.50
2017-09-15T11:53:30.279Z,2.60
2017-09-15T11:54:30.244Z,2.70
2017-09-15T11:55:30.212Z,2.70
2017-09-15T11:56:30.179Z,2.90
2017-09-15T11:57:30.150Z,3.10
2017-09-15T11:58:30.119Z,2.60
2017-09-15T11:59:30.086Z,2.80
2017-09-15T12:00:30.063Z,3.70
2017-09-15T12:01:30.026Z,2.40
2017-09-15T12:02:29.997Z,5.30
2017-09-15T12:03:29.965Z,3.40
2017-09-15T12:04:29.942Z,3.60
2017-09-15T12:05:29.907Z,3.90
2017-09-15T12:06:29.875Z,3.20
2017-09-15T12:07:29.845Z,3.10
2017-09-15T12:08:29.825Z,2.70
2017-09-15T12:09:29.790Z,2.50
2017-09-15T12:10:29.750Z,2.50
2017-09-15T12:11:29.732Z,2.80
2017-09-15T12:12:29.693Z,2.40
2017-09-15T12:13:29.663Z,2.60
2017-09-15T12:14:29.635Z,3.10
2017-09-15T12:15:29.597Z,2.90
2017-09-15T12:16:29.582Z,2.20
2017-09-15T12:17:29.541Z,2.90
2017-09-15T12:18:29.530Z,3.50
2017-09-15T12:19:29.490Z,3.50
2017-09-15T12:20:29.452Z,3.20
2017-09-15T12:21:29.425Z,3.40
2017-09-15T12:22:29.393Z,3.10
2017-09-15T12:23:29.374Z,3.00
2017-09-15T12:24:29.336Z,3.50
2017-09-15T12:25:29.304Z,4.10
2017-09-15T12:26:29.275Z,4.10
2017-09-15T12:27:29.243Z,3.50
2017-09-15T12:28:29.224Z,3.40
2017-09-15T12:29:29.184Z,3.40
2017-09-15T12:30:29.153Z,3.20
2017-09-15T12:31:29.121Z,2.50
2017-09-15T12:32:29.101Z,4.00
2017-09-15T12:33:29.064Z,3.60
2017-09-15T12:34:29.031Z,3.50
2017-09-15T12:35:29.030Z,4.00
2017-09-15T12:36:28.978Z,3.00
2017-09-15T12:37:28.951Z,2.50
2017-09-15T12:38:28.924Z,2.90
2017-09-15T12:39:28.888Z,2.50
2017-09-15T12:40:28.860Z,2.40
2017-09-15T12:41:28.836Z,2.40
2017-09-15T12:42:28.806Z,2.90
2017-09-15T12:43:28.769Z,2.70
2017-09-15T12:44:28.740Z,2.70
2017-09-15T12:45:28.708Z,3.10
2017-09-15T12:46:28.713Z,3.40
2017-09-15T12:47:28.665Z,3.00
2017-09-15T12:48:28.619Z,2.40
2017-09-15T12:49:28.592Z,2.90
2017-09-15T12:50:28.564Z,2.90
2017-09-15T12:51:28.528Z,3.10
2017-09-15T12:52:28.512Z,3.70
2017-09-15T12:53:28.470Z,3.00
2017-09-15T12:54:28.443Z,3.20
2017-09-15T12:55:28.414Z,3.20
2017-09-15T12:56:28.388Z,2.80
2017-09-15T12:57:28.366Z,3.00
2017-09-15T12:58:28.331Z,2.50
2017-09-15T12:59:28.307Z,3.00
2017-09-15T13:00:28.264Z,3.00
2017-09-15T13:01:28.270Z,3.20
2017-09-15T13:02:28.212Z,3.00
2017-09-15T13:03:28.223Z,3.10
2017-09-15T13:04:28.140Z,2.40
2017-09-15T13:05:28.117Z,2.60
2017-09-15T13:06:28.101Z,3.40
2017-09-15T13:07:28.059Z,3.10
2017-09-15T13:08:28.019Z,3.00
2017-09-15T13:09:28.006Z,3.20
2017-09-15T13:10:27.958Z,3.70
2017-09-15T13:11:27.967Z,3.30
2017-09-15T13:12:27.980Z,3.10
2017-09-15T13:13:27.872Z,4.00
2017-09-15T13:14:27.856Z,4.30
2017-09-15T13:15:27.806Z,3.10
2017-09-15T13:16:27.775Z,4.00
2017-09-15T13:17:27.759Z,3.70
2017-09-15T13:18:27.720Z,3.50